Elmira, Indiana
Current Conditions -  °F | °C
As of 5:15 AM on Tuesday 27 Jan 2015 (Local Time) from KIRS Reporting Station
Broken Clouds Broken Clouds  
Wind Chill: 19°   Ceiling: 11000
Heat Index: 19°   Visibility: 10mi
Dew Point: 10°   Wind: 3mph
Humidity: 68%   Direction: 50°NE
Pressure: 29.97"   Gusts: NA
Location:  41.6561°N, 85.3683°W
Report Text: KIRS 271015Z AUTO 05003KT 10SM BKN110 M07/M12 A2997 RMK AO2
Loading
Personal Weather Stations






























Interactive Weather Map New forecast layout! Learn more

10-Day Weather Forecast

Advertisements
Track Severe Weather on mobile